createdAt,value
2018-03-03T00:00:35.063Z,81.80
2018-03-03T00:03:01.069Z,81.80
2018-03-03T00:05:27.056Z,81.50
2018-03-03T00:07:53.033Z,83.30
2018-03-03T00:10:19.020Z,80.60
2018-03-03T00:12:44.981Z,80.30
2018-03-03T00:15:10.953Z,81.00
2018-03-03T00:17:37.655Z,80.60
2018-03-03T00:20:03.713Z,80.20
2018-03-03T00:22:39.724Z,79.60
2018-03-03T00:25:06.445Z,79.70
2018-03-03T00:27:32.476Z,79.60
2018-03-03T00:29:58.522Z,80.10
2018-03-03T00:32:24.485Z,80.40
2018-03-03T00:34:51.204Z,80.00
2018-03-03T00:37:17.177Z,80.00
2018-03-03T00:39:43.900Z,80.40
2018-03-03T00:42:09.868Z,80.40
2018-03-03T00:44:36.573Z,80.20
2018-03-03T00:47:02.552Z,80.20
2018-03-03T00:49:35.342Z,79.00
2018-03-03T00:52:02.159Z,79.20
2018-03-03T00:54:28.271Z,79.20
2018-03-03T00:56:54.281Z,79.70
2018-03-03T00:59:21.024Z,79.60
2018-03-03T01:01:47.752Z,80.00
2018-03-03T01:04:13.750Z,79.80
2018-03-03T01:06:39.747Z,80.40
2018-03-03T01:09:06.662Z,80.70
2018-03-03T01:11:32.719Z,80.20
2018-03-03T01:13:59.099Z,80.30
2018-03-03T01:16:25.130Z,80.30
2018-03-03T01:18:51.847Z,80.30
2018-03-03T01:21:17.845Z,80.30
2018-03-03T01:23:43.836Z,80.90
2018-03-03T01:26:09.837Z,80.40
2018-03-03T01:28:35.909Z,80.40
2018-03-03T01:31:01.997Z,81.10
2018-03-03T01:33:28.098Z,80.40
2018-03-03T01:35:54.126Z,81.70
2018-03-03T01:38:20.164Z,80.90
2018-03-03T01:40:46.160Z,80.50
2018-03-03T01:43:12.150Z,81.20
2018-03-03T01:45:38.922Z,81.50
2018-03-03T01:48:04.960Z,81.30
2018-03-03T01:50:31.009Z,81.30
2018-03-03T01:52:57.002Z,81.30
2018-03-03T01:55:23.727Z,81.50
2018-03-03T01:57:49.768Z,81.50
2018-03-03T02:00:15.748Z,81.60
2018-03-03T02:02:41.751Z,81.50
2018-03-03T02:05:07.756Z,81.60
2018-03-03T02:07:33.831Z,81.80
2018-03-03T02:09:59.948Z,82.40
2018-03-03T02:12:25.968Z,81.90
2018-03-03T02:14:51.949Z,81.90
2018-03-03T02:17:18.682Z,82.90
2018-03-03T02:19:44.651Z,82.80
2018-03-03T02:22:11.394Z,84.30
2018-03-03T02:24:38.129Z,85.10
2018-03-03T02:27:04.204Z,85.00
2018-03-03T02:29:30.272Z,85.00
2018-03-03T02:31:56.285Z,86.10
2018-03-03T02:34:22.243Z,86.00
2018-03-03T02:36:48.244Z,85.50
2018-03-03T02:39:14.208Z,85.40
2018-03-03T02:41:40.202Z,86.50
2018-03-03T02:44:06.969Z,86.50
2018-03-03T02:46:33.005Z,86.40
2018-03-03T02:48:59.028Z,85.30
2018-03-03T02:51:25.760Z,85.90
2018-03-03T02:53:51.745Z,85.80
2018-03-03T02:56:17.732Z,85.80
2018-03-03T02:58:45.210Z,86.00
2018-03-03T03:01:11.201Z,85.90
2018-03-03T03:03:37.240Z,84.80
2018-03-03T03:06:03.247Z,86.00
2018-03-03T03:08:29.316Z,84.60
2018-03-03T03:10:55.314Z,84.70
2018-03-03T03:13:22.048Z,85.20
2018-03-03T03:15:48.074Z,85.20
2018-03-03T03:18:14.097Z,85.30
2018-03-03T03:20:40.086Z,84.40
2018-03-03T03:23:06.314Z,84.10
2018-03-03T03:25:32.363Z,84.50
2018-03-03T03:27:58.456Z,85.10
2018-03-03T03:30:24.495Z,84.70
2018-03-03T03:32:50.476Z,84.40
2018-03-03T03:35:16.464Z,84.80
2018-03-03T03:37:42.483Z,83.90
2018-03-03T03:40:08.496Z,84.40
2018-03-03T03:42:34.531Z,83.90
2018-03-03T03:45:00.581Z,82.70
2018-03-03T03:47:26.552Z,82.90
2018-03-03T03:49:52.563Z,83.00
2018-03-03T03:52:18.546Z,83.20
2018-03-03T03:54:45.280Z,82.90
2018-03-03T03:57:11.299Z,82.90
2018-03-03T03:59:37.367Z,82.70
2018-03-03T04:02:04.172Z,82.10
2018-03-03T04:04:30.224Z,81.90
2018-03-03T04:06:56.207Z,82.80
2018-03-03T04:09:22.188Z,82.80
2018-03-03T04:11:48.164Z,82.70
2018-03-03T04:14:14.888Z,82.40
2018-03-03T04:16:40.885Z,82.40
2018-03-03T04:19:06.960Z,81.90
2018-03-03T04:21:33.189Z,81.40
2018-03-03T04:23:59.241Z,81.80
2018-03-03T04:26:25.302Z,81.80
2018-03-03T04:28:52.045Z,80.80
2018-03-03T04:31:18.057Z,80.80
2018-03-03T04:33:44.089Z,81.00
2018-03-03T04:36:10.204Z,81.50
2018-03-03T04:38:36.298Z,81.70
2018-03-03T04:41:03.150Z,83.70
2018-03-03T04:43:30.006Z,81.80
2018-03-03T04:45:56.756Z,80.80
2018-03-03T04:48:22.786Z,80.90
2018-03-03T04:50:49.530Z,81.40
2018-03-03T04:53:15.554Z,81.30
2018-03-03T04:55:41.575Z,80.90
2018-03-03T04:58:07.612Z,80.90
2018-03-03T05:00:34.541Z,81.40
2018-03-03T05:03:06.804Z,81.50
2018-03-03T05:05:39.907Z,82.30
2018-03-03T05:08:19.059Z,82.20
2018-03-03T05:10:45.781Z,80.80
2018-03-03T05:13:17.784Z,80.70
2018-03-03T05:15:46.478Z,80.40
2018-03-03T05:18:12.452Z,80.40
2018-03-03T05:23:50.542Z,80.60
2018-03-03T05:29:23.041Z,81.90
2018-03-03T05:31:55.412Z,81.10
2018-03-03T05:34:25.193Z,81.10
2018-03-03T05:36:57.221Z,80.80
2018-03-03T05:39:29.269Z,82.00
2018-03-03T05:45:03.802Z,80.50
2018-03-03T05:47:36.151Z,80.80
2018-03-03T05:50:08.427Z,80.80
2018-03-03T05:52:35.288Z,80.60
2018-03-03T05:55:07.576Z,80.50
2018-03-03T06:00:43.227Z,81.10
2018-03-03T06:03:19.983Z,81.00
2018-03-03T06:05:48.841Z,80.30
2018-03-03T06:08:20.475Z,81.60
2018-03-03T06:10:46.471Z,81.60
2018-03-03T06:13:12.484Z,81.50
2018-03-03T06:15:39.214Z,80.80
2018-03-03T06:18:05.246Z,80.80
2018-03-03T06:20:31.317Z,80.60
2018-03-03T06:22:58.114Z,80.50
2018-03-03T06:25:24.113Z,80.50
2018-03-03T06:27:50.135Z,80.10
2018-03-03T06:30:16.851Z,81.00
2018-03-03T06:32:42.844Z,81.00
2018-03-03T06:35:08.845Z,80.70
2018-03-03T06:37:35.620Z,80.60
2018-03-03T06:40:02.412Z,80.50
2018-03-03T06:42:28.410Z,80.50
2018-03-03T06:44:54.416Z,80.40
2018-03-03T06:47:20.431Z,80.50
2018-03-03T06:49:46.417Z,80.20
2018-03-03T06:52:12.363Z,80.40
2018-03-03T06:54:38.331Z,80.50
2018-03-03T06:57:05.030Z,79.80
2018-03-03T06:59:31.073Z,79.70
2018-03-03T07:01:57.052Z,79.50
2018-03-03T07:04:23.020Z,79.30
2018-03-03T07:06:48.971Z,80.00
2018-03-03T07:09:15.001Z,79.60
2018-03-03T07:11:40.988Z,79.80
2018-03-03T07:14:07.718Z,80.00
2018-03-03T07:16:33.713Z,80.00
2018-03-03T07:18:59.730Z,80.10
2018-03-03T07:21:25.692Z,79.90
2018-03-03T07:23:51.930Z,79.30
2018-03-03T07:26:17.897Z,79.00
2018-03-03T07:28:43.915Z,79.70
2018-03-03T07:31:09.842Z,80.10
2018-03-03T07:33:35.827Z,79.90
2018-03-03T07:36:02.580Z,79.70
2018-03-03T07:38:29.363Z,80.60
2018-03-03T07:40:55.345Z,80.50
2018-03-03T07:43:21.306Z,80.10
2018-03-03T07:45:48.037Z,79.90
2018-03-03T07:48:14.011Z,79.80
2018-03-03T07:50:39.984Z,78.50
2018-03-03T07:53:05.941Z,78.70
2018-03-03T07:55:31.997Z,78.00
2018-03-03T07:57:58.821Z,77.40
2018-03-03T08:00:24.783Z,77.40
2018-03-03T08:02:51.492Z,78.10
2018-03-03T08:05:17.464Z,78.10
2018-03-03T08:07:43.442Z,77.90
2018-03-03T08:10:09.448Z,78.20
2018-03-03T08:12:36.148Z,78.40
2018-03-03T08:15:02.372Z,78.40
2018-03-03T08:17:28.365Z,77.90
2018-03-03T08:19:55.065Z,79.10
2018-03-03T08:22:21.049Z,78.50
2018-03-03T08:24:47.039Z,77.20
2018-03-03T08:27:12.991Z,77.10
2018-03-03T08:29:38.999Z,75.90
2018-03-03T08:32:04.994Z,75.40
2018-03-03T08:34:31.717Z,77.00
2018-03-03T08:36:57.769Z,76.40
2018-03-03T08:39:23.744Z,76.00
2018-03-03T08:41:49.713Z,76.90
2018-03-03T08:44:15.670Z,75.30
2018-03-03T08:46:41.644Z,75.40
2018-03-03T08:49:07.650Z,75.50
2018-03-03T08:51:33.642Z,75.50
2018-03-03T08:53:59.657Z,75.70
2018-03-03T08:56:25.645Z,76.40
2018-03-03T08:58:51.613Z,76.40
2018-03-03T09:01:18.317Z,75.40
2018-03-03T09:03:44.284Z,75.40
2018-03-03T09:06:10.242Z,75.60
2018-03-03T09:08:36.234Z,74.60
2018-03-03T09:11:02.254Z,73.60
2018-03-03T09:13:28.278Z,73.30
2018-03-03T09:15:54.241Z,74.10
2018-03-03T09:18:20.205Z,75.30
2018-03-03T09:20:46.909Z,74.70
2018-03-03T09:23:12.868Z,74.40
2018-03-03T09:25:38.820Z,73.60
2018-03-03T09:28:04.798Z,74.80
2018-03-03T09:30:30.770Z,74.90
2018-03-03T09:32:56.728Z,74.50
2018-03-03T09:35:22.681Z,74.30
2018-03-03T09:37:48.652Z,74.80
2018-03-03T09:40:14.615Z,75.40
2018-03-03T09:42:40.602Z,72.60
2018-03-03T09:45:06.579Z,73.40
2018-03-03T09:47:32.563Z,72.70
2018-03-03T09:49:58.582Z,70.60
2018-03-03T09:52:25.276Z,70.50
2018-03-03T09:54:51.253Z,70.50
2018-03-03T09:57:17.238Z,70.70
2018-03-03T09:59:43.205Z,72.50
2018-03-03T10:02:09.169Z,71.80
2018-03-03T10:04:35.887Z,72.00
2018-03-03T10:07:01.888Z,72.00
2018-03-03T10:09:28.065Z,72.00
2018-03-03T10:11:54.024Z,71.10
2018-03-03T10:14:20.025Z,71.80
2018-03-03T10:16:45.979Z,71.90
2018-03-03T10:19:11.938Z,72.40
2018-03-03T10:21:37.889Z,72.40
2018-03-03T10:24:04.606Z,71.50
2018-03-03T10:26:30.580Z,71.50
2018-03-03T10:28:56.572Z,72.50
2018-03-03T10:31:22.538Z,71.20
2018-03-03T10:33:49.238Z,69.60
2018-03-03T10:36:15.230Z,69.50
2018-03-03T10:38:41.928Z,68.90
2018-03-03T10:41:07.906Z,68.80
2018-03-03T10:43:34.634Z,69.80
2018-03-03T10:46:00.657Z,69.20
2018-03-03T10:48:26.631Z,69.50
2018-03-03T10:50:53.329Z,70.00
2018-03-03T10:53:19.283Z,69.70
2018-03-03T10:55:45.239Z,68.50
2018-03-03T10:58:11.200Z,68.90
2018-03-03T11:00:37.925Z,68.80
2018-03-03T11:03:03.909Z,68.80
2018-03-03T11:05:29.903Z,69.30
2018-03-03T11:07:55.965Z,69.60
2018-03-03T11:10:22.202Z,69.70
2018-03-03T11:12:48.890Z,69.70
2018-03-03T11:15:14.870Z,69.70
2018-03-03T11:17:40.834Z,70.10
2018-03-03T11:20:06.793Z,70.10
2018-03-03T11:22:32.930Z,69.90
2018-03-03T11:24:58.978Z,70.20
2018-03-03T11:27:24.948Z,70.60
2018-03-03T11:29:50.907Z,68.60
2018-03-03T11:32:17.607Z,72.70
2018-03-03T11:34:43.561Z,72.70
2018-03-03T11:37:09.540Z,72.90
2018-03-03T11:39:35.508Z,73.10
2018-03-03T11:42:01.523Z,67.30
2018-03-03T11:44:27.488Z,67.40
2018-03-03T11:46:53.461Z,68.00
2018-03-03T11:49:20.174Z,67.40
2018-03-03T11:51:46.137Z,67.30
2018-03-03T11:54:12.097Z,67.50
2018-03-03T11:56:38.796Z,67.90
2018-03-03T11:59:04.816Z,67.80
2018-03-03T12:01:37.733Z,66.50
2018-03-03T12:04:03.765Z,65.30
2018-03-03T12:06:29.783Z,64.40
2018-03-03T12:08:55.757Z,63.80
2018-03-03T12:11:21.726Z,64.50
2018-03-03T12:13:47.701Z,64.80
2018-03-03T12:16:13.657Z,65.30
2018-03-03T12:18:39.615Z,63.70
2018-03-03T12:21:06.334Z,61.50
2018-03-03T12:23:32.349Z,61.50
2018-03-03T12:25:58.473Z,60.60
2018-03-03T12:28:24.439Z,60.00
2018-03-03T12:30:50.393Z,61.30
2018-03-03T12:33:16.365Z,58.10
2018-03-03T12:35:42.395Z,58.50
2018-03-03T12:38:08.319Z,58.20
2018-03-03T12:40:35.024Z,60.40
2018-03-03T12:43:01.053Z,60.40
2018-03-03T12:45:27.021Z,60.70
2018-03-03T12:47:52.967Z,61.30
2018-03-03T12:50:18.933Z,60.60
2018-03-03T12:52:44.940Z,61.20
2018-03-03T12:55:10.913Z,62.20
2018-03-03T12:57:36.939Z,63.60
2018-03-03T13:00:02.992Z,64.90
2018-03-03T13:02:28.994Z,63.40
2018-03-03T13:04:55.693Z,63.10
2018-03-03T13:07:21.661Z,62.90
2018-03-03T13:09:47.616Z,62.40
2018-03-03T13:12:21.501Z,60.90
2018-03-03T13:14:47.473Z,60.90
2018-03-03T13:17:14.173Z,61.50
2018-03-03T13:19:40.143Z,61.30
2018-03-03T13:22:06.092Z,61.80
2018-03-03T13:24:32.808Z,62.20
2018-03-03T13:26:58.813Z,61.40
2018-03-03T13:29:24.788Z,61.00
2018-03-03T13:31:50.758Z,60.70
2018-03-03T13:34:17.458Z,62.10
2018-03-03T13:36:43.420Z,62.10
2018-03-03T13:39:09.383Z,61.40
2018-03-03T13:41:36.115Z,64.50
2018-03-03T13:44:03.612Z,66.20
2018-03-03T13:46:30.344Z,65.40
2018-03-03T13:48:57.040Z,65.80
2018-03-03T13:51:23.025Z,65.20
2018-03-03T13:53:48.984Z,65.10
2018-03-03T13:56:15.697Z,64.00
2018-03-03T13:58:41.721Z,64.00
2018-03-03T14:01:07.748Z,64.90
2018-03-03T14:03:34.500Z,66.40
2018-03-03T14:06:00.518Z,66.30
2018-03-03T14:08:26.500Z,66.40
2018-03-03T14:10:52.485Z,66.60
2018-03-03T14:13:18.469Z,67.20
2018-03-03T14:15:44.424Z,67.40
2018-03-03T14:18:10.618Z,67.20
2018-03-03T14:20:36.592Z,67.30
2018-03-03T14:23:02.610Z,68.20
2018-03-03T14:25:28.604Z,67.60
2018-03-03T14:27:54.583Z,67.40
2018-03-03T14:30:20.533Z,67.70
2018-03-03T14:32:46.506Z,67.80
2018-03-03T14:35:12.464Z,67.50
2018-03-03T14:37:38.454Z,67.70
2018-03-03T14:40:05.171Z,68.40
2018-03-03T14:42:31.165Z,68.40
2018-03-03T14:44:57.135Z,68.40
2018-03-03T14:47:23.105Z,67.90
2018-03-03T14:49:49.818Z,67.60
2018-03-03T14:52:15.785Z,67.50
2018-03-03T14:54:41.731Z,67.40
2018-03-03T14:57:08.445Z,68.50
2018-03-03T14:59:34.407Z,68.50
2018-03-03T15:02:00.395Z,68.80
2018-03-03T15:04:26.367Z,68.00
2018-03-03T15:06:53.812Z,67.90
2018-03-03T15:09:19.774Z,67.90
2018-03-03T15:11:45.720Z,68.40
2018-03-03T15:14:12.426Z,68.40
2018-03-03T15:16:38.375Z,68.40
2018-03-03T15:19:04.344Z,68.10
2018-03-03T15:21:30.306Z,68.30
2018-03-03T15:23:56.289Z,67.80
2018-03-03T15:26:22.263Z,68.90
2018-03-03T15:28:48.960Z,69.10
2018-03-03T15:31:14.928Z,69.10
2018-03-03T15:33:40.897Z,69.40
2018-03-03T15:36:06.864Z,70.00
2018-03-03T15:38:32.892Z,70.50
2018-03-03T15:40:58.912Z,70.90
2018-03-03T15:43:24.886Z,70.90
2018-03-03T15:45:50.836Z,71.10
2018-03-03T15:48:16.817Z,71.10
2018-03-03T15:50:42.783Z,71.40
2018-03-03T15:53:08.751Z,71.70
2018-03-03T15:55:35.495Z,72.90
2018-03-03T15:58:01.474Z,72.30
2018-03-03T16:00:27.457Z,72.60
2018-03-03T16:02:53.425Z,72.90
2018-03-03T16:05:19.393Z,72.60
2018-03-03T16:07:45.348Z,72.70
2018-03-03T16:10:11.353Z,73.70
2018-03-03T16:12:37.307Z,73.60
2018-03-03T16:15:03.290Z,73.60
2018-03-03T16:17:29.292Z,73.70
2018-03-03T16:19:55.357Z,74.50
2018-03-03T16:22:21.630Z,75.10
2018-03-03T16:24:47.592Z,75.30
2018-03-03T16:27:13.598Z,76.30
2018-03-03T16:29:39.565Z,76.60
2018-03-03T16:32:05.527Z,76.30
2018-03-03T16:34:32.235Z,77.60
2018-03-03T16:36:58.230Z,77.60
2018-03-03T16:39:24.236Z,77.70
2018-03-03T16:41:50.959Z,77.90
2018-03-03T16:44:16.925Z,77.90
2018-03-03T16:46:42.926Z,77.90
2018-03-03T16:49:08.968Z,78.90
2018-03-03T16:51:34.872Z,78.60
2018-03-03T16:54:00.867Z,79.50
2018-03-03T16:56:26.898Z,79.00
2018-03-03T16:58:53.600Z,80.00
2018-03-03T17:01:19.571Z,79.90
2018-03-03T17:03:45.520Z,80.10
2018-03-03T17:06:11.475Z,80.70
2018-03-03T17:08:37.435Z,81.20
2018-03-03T17:11:03.406Z,81.10
2018-03-03T17:13:29.364Z,81.80
2018-03-03T17:15:55.324Z,81.50
2018-03-03T17:18:21.294Z,81.00
2018-03-03T17:20:48.000Z,81.80
2018-03-03T17:23:13.959Z,81.80
2018-03-03T17:25:39.947Z,81.20
2018-03-03T17:28:05.963Z,80.70
2018-03-03T17:30:31.933Z,81.10
2018-03-03T17:32:57.897Z,81.10
2018-03-03T17:35:23.847Z,81.20
2018-03-03T17:37:50.561Z,83.20
2018-03-03T17:40:16.521Z,82.60
2018-03-03T17:42:42.516Z,82.30
2018-03-03T17:45:08.501Z,83.20
2018-03-03T17:47:34.476Z,83.60
2018-03-03T17:50:00.443Z,83.90
2018-03-03T17:52:26.425Z,83.70
2018-03-03T17:54:53.124Z,84.80
2018-03-03T17:57:19.090Z,84.70
2018-03-03T17:59:45.053Z,84.30
2018-03-03T18:02:11.063Z,83.80
2018-03-03T18:04:37.763Z,83.70
2018-03-03T18:07:03.735Z,83.60
2018-03-03T18:09:30.449Z,83.90
2018-03-03T18:11:57.920Z,82.50
2018-03-03T18:14:23.868Z,82.40
2018-03-03T18:16:50.582Z,79.90
2018-03-03T18:19:16.531Z,79.80
2018-03-03T18:21:42.498Z,79.30
2018-03-03T18:24:20.879Z,78.10
2018-03-03T18:26:46.843Z,78.70
2018-03-03T18:29:12.801Z,79.00
2018-03-03T18:31:39.509Z,78.20
2018-03-03T18:34:12.475Z,78.20
2018-03-03T18:36:38.457Z,78.40
2018-03-03T18:39:04.431Z,78.40
2018-03-03T18:41:30.417Z,78.80
2018-03-03T18:43:56.485Z,79.70
2018-03-03T18:46:23.197Z,79.00
2018-03-03T18:48:49.156Z,79.00
2018-03-03T18:51:15.117Z,78.50
2018-03-03T18:53:41.829Z,77.90
2018-03-03T18:56:07.780Z,77.80
2018-03-03T18:58:33.760Z,77.80
2018-03-03T19:00:59.810Z,77.50
2018-03-03T19:03:25.862Z,77.60
2018-03-03T19:05:51.852Z,77.00
2018-03-03T19:08:18.560Z,76.30
2018-03-03T19:10:44.525Z,76.30
2018-03-03T19:13:11.277Z,76.20
2018-03-03T19:15:38.006Z,76.50
2018-03-03T19:18:04.765Z,76.90
2018-03-03T19:20:30.795Z,76.30
2018-03-03T19:22:56.750Z,76.40
2018-03-03T19:25:23.461Z,75.90
2018-03-03T19:27:49.420Z,75.70
2018-03-03T19:30:15.401Z,76.20
2018-03-03T19:32:41.397Z,75.60
2018-03-03T19:35:07.357Z,74.90
2018-03-03T19:37:34.218Z,74.60
2018-03-03T19:40:00.244Z,74.60
2018-03-03T19:42:27.017Z,74.80
2018-03-03T19:44:52.986Z,74.60
2018-03-03T19:47:19.022Z,74.50
2018-03-03T19:49:44.984Z,73.80
2018-03-03T19:52:10.946Z,73.30
2018-03-03T19:54:36.924Z,72.50
2018-03-03T19:57:02.880Z,72.60
2018-03-03T19:59:28.877Z,73.10
2018-03-03T20:01:54.917Z,73.40
2018-03-03T20:04:20.876Z,73.30
2018-03-03T20:06:46.859Z,72.60
2018-03-03T20:09:12.968Z,73.10
2018-03-03T20:11:38.929Z,73.10
2018-03-03T20:14:05.636Z,72.60
2018-03-03T20:16:31.617Z,72.60
2018-03-03T20:18:58.349Z,72.20
2018-03-03T20:21:24.352Z,72.20
2018-03-03T20:23:50.325Z,73.00
2018-03-03T20:26:16.308Z,73.20
2018-03-03T20:28:42.303Z,72.80
2018-03-03T20:31:09.150Z,73.90
2018-03-03T20:33:35.877Z,73.70
2018-03-03T20:36:01.870Z,73.00
2018-03-03T20:38:27.858Z,73.70
2018-03-03T20:40:54.561Z,74.10
2018-03-03T20:43:20.516Z,73.80
2018-03-03T20:45:47.374Z,74.80
2018-03-03T20:48:13.345Z,74.90
2018-03-03T20:50:39.308Z,74.80
2018-03-03T20:53:06.017Z,76.10
2018-03-03T20:55:32.059Z,76.10
2018-03-03T20:57:58.125Z,76.70
2018-03-03T21:00:31.931Z,77.70
2018-03-03T21:02:58.726Z,78.00
2018-03-03T21:05:24.697Z,78.00
2018-03-03T21:07:50.657Z,77.90
2018-03-03T21:10:16.631Z,78.30
2018-03-03T21:12:42.610Z,78.30
2018-03-03T21:15:09.328Z,79.40
2018-03-03T21:17:35.277Z,79.40
2018-03-03T21:20:01.318Z,79.20
2018-03-03T21:22:27.311Z,79.40
2018-03-03T21:24:53.268Z,80.00
2018-03-03T21:27:19.235Z,80.10
2018-03-03T21:29:45.198Z,80.60
2018-03-03T21:32:11.926Z,81.50
2018-03-03T21:34:37.901Z,81.10
2018-03-03T21:37:03.900Z,80.90
2018-03-03T21:39:31.354Z,81.10
2018-03-03T21:41:57.401Z,81.10
2018-03-03T21:44:23.392Z,81.00
2018-03-03T21:46:50.078Z,81.50
2018-03-03T21:49:16.036Z,81.40
2018-03-03T21:51:42.021Z,81.80
2018-03-03T21:54:07.980Z,82.00
2018-03-03T21:56:33.973Z,81.60
2018-03-03T21:59:00.696Z,81.90
2018-03-03T22:01:26.689Z,81.90
2018-03-03T22:03:52.648Z,82.10
2018-03-03T22:06:18.684Z,82.20
2018-03-03T22:08:44.656Z,82.90
2018-03-03T22:11:11.406Z,82.20
2018-03-03T22:13:38.112Z,83.00
2018-03-03T22:16:04.094Z,82.90
2018-03-03T22:18:30.819Z,83.00
2018-03-03T22:20:56.799Z,82.90
2018-03-03T22:23:22.781Z,82.90
2018-03-03T22:25:48.760Z,83.70
2018-03-03T22:28:15.469Z,83.00
2018-03-03T22:30:41.424Z,83.00
2018-03-03T22:33:07.425Z,83.00
2018-03-03T22:35:33.373Z,83.10
2018-03-03T22:37:59.368Z,83.10
2018-03-03T22:40:25.345Z,82.60
2018-03-03T22:42:51.296Z,82.40
2018-03-03T22:45:17.257Z,82.50
2018-03-03T22:47:43.969Z,83.10
2018-03-03T22:50:09.951Z,83.00
2018-03-03T22:52:35.926Z,83.00
2018-03-03T22:55:01.944Z,83.10
2018-03-03T22:57:28.242Z,83.70
2018-03-03T22:59:54.228Z,84.20
2018-03-03T23:02:20.207Z,83.60
2018-03-03T23:04:46.204Z,84.80
2018-03-03T23:07:12.160Z,85.00
2018-03-03T23:09:38.145Z,83.90
2018-03-03T23:12:04.848Z,84.40
2018-03-03T23:14:30.845Z,84.40
2018-03-03T23:16:56.965Z,84.90
2018-03-03T23:19:30.808Z,83.60
2018-03-03T23:21:56.844Z,83.60
2018-03-03T23:24:22.811Z,84.80
2018-03-03T23:26:48.775Z,83.90
2018-03-03T23:29:14.756Z,84.00
2018-03-03T23:31:40.716Z,84.00
2018-03-03T23:34:06.689Z,83.10
2018-03-03T23:36:33.404Z,83.60
2018-03-03T23:38:59.390Z,83.60
2018-03-03T23:41:25.411Z,83.30
2018-03-03T23:43:52.129Z,83.60
2018-03-03T23:46:18.152Z,83.50
2018-03-03T23:48:44.112Z,83.60
2018-03-03T23:51:10.072Z,84.30
2018-03-03T23:53:36.788Z,85.80
2018-03-03T23:56:02.761Z,85.80
2018-03-03T23:58:29.475Z,85.80
